sensor_id;sensor_type;location;lat;lon;timestamp;pressure;altitude;pressure_sealevel;temperature
64947;BMP280;51469;52.150;4.682;2024-02-15T00:01:57;101753.34;;;18.92
64947;BMP280;51469;52.150;4.682;2024-02-15T00:04:22;101755.69;;;18.93
64947;BMP280;51469;52.150;4.682;2024-02-15T00:06:47;101754.13;;;18.96
64947;BMP280;51469;52.150;4.682;2024-02-15T00:09:13;101752.97;;;18.90
64947;BMP280;51469;52.150;4.682;2024-02-15T00:11:38;101751.91;;;18.77
64947;BMP280;51469;52.150;4.682;2024-02-15T00:14:04;101747.06;;;18.88
64947;BMP280;51469;52.150;4.682;2024-02-15T00:16:30;101749.38;;;18.93
64947;BMP280;51469;52.150;4.682;2024-02-15T00:18:55;101742.88;;;19.06
64947;BMP280;51469;52.150;4.682;2024-02-15T00:21:21;101752.38;;;19.09
64947;BMP280;51469;52.150;4.682;2024-02-15T00:23:48;101750.00;;;19.11
64947;BMP280;51469;52.150;4.682;2024-02-15T00:26:13;101750.88;;;19.01
64947;BMP280;51469;52.150;4.682;2024-02-15T00:28:41;101744.06;;;19.05
64947;BMP280;51469;52.150;4.682;2024-02-15T00:31:06;101737.72;;;19.05
64947;BMP280;51469;52.150;4.682;2024-02-15T00:33:33;101735.78;;;19.02
64947;BMP280;51469;52.150;4.682;2024-02-15T00:35:58;101740.50;;;19.05
64947;BMP280;51469;52.150;4.682;2024-02-15T00:38:24;101730.84;;;19.13
64947;BMP280;51469;52.150;4.682;2024-02-15T00:40:49;101742.88;;;19.06
64947;BMP280;51469;52.150;4.682;2024-02-15T00:43:14;101738.25;;;18.93
64947;BMP280;51469;52.150;4.682;2024-02-15T00:45:40;101739.97;;;18.80
64947;BMP280;51469;52.150;4.682;2024-02-15T00:48:06;101739.84;;;18.90
64947;BMP280;51469;52.150;4.682;2024-02-15T00:50:37;101742.28;;;18.85
64947;BMP280;51469;52.150;4.682;2024-02-15T00:53:03;101736.94;;;18.64
64947;BMP280;51469;52.150;4.682;2024-02-15T00:55:28;101731.91;;;18.92
64947;BMP280;51469;52.150;4.682;2024-02-15T00:57:54;101721.47;;;19.00
64947;BMP280;51469;52.150;4.682;2024-02-15T01:02:57;101714.16;;;19.13
64947;BMP280;51469;52.150;4.682;2024-02-15T01:05:23;101722.94;;;19.08
64947;BMP280;51469;52.150;4.682;2024-02-15T01:07:49;101720.13;;;19.15
64947;BMP280;51469;52.150;4.682;2024-02-15T01:10:15;101730.78;;;19.20
64947;BMP280;51469;52.150;4.682;2024-02-15T01:12:40;101734.06;;;19.08
64947;BMP280;51469;52.150;4.682;2024-02-15T01:15:06;101740.44;;;19.08
64947;BMP280;51469;52.150;4.682;2024-02-15T01:17:31;101720.88;;;19.19
64947;BMP280;51469;52.150;4.682;2024-02-15T01:19:57;101714.16;;;19.13
64947;BMP280;51469;52.150;4.682;2024-02-15T01:22:22;101716.44;;;19.21
64947;BMP280;51469;52.150;4.682;2024-02-15T01:24:52;101721.28;;;19.17
64947;BMP280;51469;52.150;4.682;2024-02-15T01:27:18;101721.59;;;19.23
64947;BMP280;51469;52.150;4.682;2024-02-15T01:29:43;101714.88;;;19.20
64947;BMP280;51469;52.150;4.682;2024-02-15T01:32:08;101722.06;;;19.18
64947;BMP280;51469;52.150;4.682;2024-02-15T01:34:34;101712.28;;;19.03
64947;BMP280;51469;52.150;4.682;2024-02-15T01:36:59;101707.78;;;19.16
64947;BMP280;51469;52.150;4.682;2024-02-15T01:39:25;101708.53;;;19.20
64947;BMP280;51469;52.150;4.682;2024-02-15T01:41:50;101703.16;;;19.06
64947;BMP280;51469;52.150;4.682;2024-02-15T01:44:21;101703.78;;;19.17
64947;BMP280;51469;52.150;4.682;2024-02-15T01:46:47;101706.16;;;19.18
64947;BMP280;51469;52.150;4.682;2024-02-15T01:49:13;101698.31;;;19.10
64947;BMP280;51469;52.150;4.682;2024-02-15T01:51:41;101714.16;;;19.13
64947;BMP280;51469;52.150;4.682;2024-02-15T01:54:09;101702.63;;;18.84
64947;BMP280;51469;52.150;4.682;2024-02-15T01:56:34;101696.75;;;19.09
64947;BMP280;51469;52.150;4.682;2024-02-15T01:59:00;101702.44;;;18.95
64947;BMP280;51469;52.150;4.682;2024-02-15T02:01:27;101690.41;;;19.05
64947;BMP280;51469;52.150;4.682;2024-02-15T02:03:54;101697.38;;;18.86
64947;BMP280;51469;52.150;4.682;2024-02-15T02:06:19;101682.63;;;18.93
64947;BMP280;51469;52.150;4.682;2024-02-15T02:08:44;101684.13;;;19.01
64947;BMP280;51469;52.150;4.682;2024-02-15T02:11:10;101682.25;;;18.91
64947;BMP280;51469;52.150;4.682;2024-02-15T02:13:35;101694.22;;;18.88
64947;BMP280;51469;52.150;4.682;2024-02-15T02:16:01;101691.94;;;18.79
64947;BMP280;51469;52.150;4.682;2024-02-15T02:18:26;101685.13;;;18.84
64947;BMP280;51469;52.150;4.682;2024-02-15T02:20:51;101685.94;;;18.81
64947;BMP280;51469;52.150;4.682;2024-02-15T02:23:21;101676.34;;;18.89
64947;BMP280;51469;52.150;4.682;2024-02-15T02:25:48;101678.63;;;18.94
64947;BMP280;51469;52.150;4.682;2024-02-15T02:28:14;101680.91;;;19.06
64947;BMP280;51469;52.150;4.682;2024-02-15T02:30:41;101680.81;;;19.09
64947;BMP280;51469;52.150;4.682;2024-02-15T02:33:11;101685.88;;;18.88
64947;BMP280;51469;52.150;4.682;2024-02-15T02:35:36;101673.91;;;18.91
64947;BMP280;51469;52.150;4.682;2024-02-15T02:38:02;101678.56;;;19.01
64947;BMP280;51469;52.150;4.682;2024-02-15T02:40:28;101661.94;;;18.94
64947;BMP280;51469;52.150;4.682;2024-02-15T02:42:55;101663.75;;;19.11
64947;BMP280;51469;52.150;4.682;2024-02-15T02:45:27;101666.25;;;19.02
64947;BMP280;51469;52.150;4.682;2024-02-15T02:47:53;101666.75;;;18.90
64947;BMP280;51469;52.150;4.682;2024-02-15T02:50:19;101659.66;;;18.89
64947;BMP280;51469;52.150;4.682;2024-02-15T02:52:44;101668.44;;;18.80
64947;BMP280;51469;52.150;4.682;2024-02-15T02:55:10;101665.13;;;18.96
64947;BMP280;51469;52.150;4.682;2024-02-15T02:57:37;101667.00;;;19.06
64947;BMP280;51469;52.150;4.682;2024-02-15T03:00:07;101661.19;;;18.90
64947;BMP280;51469;52.150;4.682;2024-02-15T03:02:36;101668.50;;;18.77
64947;BMP280;51469;52.150;4.682;2024-02-15T03:05:03;101672.25;;;18.97
64947;BMP280;51469;52.150;4.682;2024-02-15T03:07:32;101671.41;;;19.00
64947;BMP280;51469;52.150;4.682;2024-02-15T03:09:58;101663.34;;;19.09
64947;BMP280;51469;52.150;4.682;2024-02-15T03:12:23;101667.31;;;19.08
64947;BMP280;51469;52.150;4.682;2024-02-15T03:14:48;101657.38;;;18.77
64947;BMP280;51469;52.150;4.682;2024-02-15T03:17:14;101663.47;;;19.02
64947;BMP280;51469;52.150;4.682;2024-02-15T03:19:39;101670.56;;;19.03
64947;BMP280;51469;52.150;4.682;2024-02-15T03:22:06;101650.63;;;19.08
64947;BMP280;51469;52.150;4.682;2024-02-15T03:24:31;101668.31;;;18.94
64947;BMP280;51469;52.150;4.682;2024-02-15T03:26:57;101665.13;;;18.96
64947;BMP280;51469;52.150;4.682;2024-02-15T03:29:22;101665.66;;;18.84
64947;BMP280;51469;52.150;4.682;2024-02-15T03:31:47;101660.00;;;18.91
64947;BMP280;51469;52.150;4.682;2024-02-15T03:34:14;101657.94;;;18.95
64947;BMP280;51469;52.150;4.682;2024-02-15T03:36:41;101656.19;;;19.08
64947;BMP280;51469;52.150;4.682;2024-02-15T03:39:06;101655.28;;;19.18
64947;BMP280;51469;52.150;4.682;2024-02-15T03:41:33;101651.94;;;19.30
64947;BMP280;51469;52.150;4.682;2024-02-15T03:43:59;101654.97;;;19.12
64947;BMP280;51469;52.150;4.682;2024-02-15T03:46:25;101650.63;;;19.08
64947;BMP280;51469;52.150;4.682;2024-02-15T03:48:51;101662.50;;;19.12
64947;BMP280;51469;52.150;4.682;2024-02-15T03:51:18;101649.53;;;19.02
64947;BMP280;51469;52.150;4.682;2024-02-15T03:53:45;101655.47;;;19.04
64947;BMP280;51469;52.150;4.682;2024-02-15T03:56:11;101649.88;;;19.07
64947;BMP280;51469;52.150;4.682;2024-02-15T03:58:37;101646.94;;;19.18
64947;BMP280;51469;52.150;4.682;2024-02-15T04:01:03;101645.53;;;19.03
64947;BMP280;51469;52.150;4.682;2024-02-15T04:03:31;101642.72;;;19.06
64947;BMP280;51469;52.150;4.682;2024-02-15T04:06:00;101631.94;;;18.78
64947;BMP280;51469;52.150;4.682;2024-02-15T04:08:26;101636.03;;;18.67
64947;BMP280;51469;52.150;4.682;2024-02-15T04:10:52;101629.50;;;18.84
64947;BMP280;51469;52.150;4.682;2024-02-15T04:13:18;101632.47;;;19.00
64947;BMP280;51469;52.150;4.682;2024-02-15T04:15:43;101637.00;;;18.87
64947;BMP280;51469;52.150;4.682;2024-02-15T04:18:09;101640.63;;;18.84
64947;BMP280;51469;52.150;4.682;2024-02-15T04:20:36;101641.50;;;18.77
64947;BMP280;51469;52.150;4.682;2024-02-15T04:23:01;101639.22;;;18.69
64947;BMP280;51469;52.150;4.682;2024-02-15T04:25:27;101634.69;;;18.82
64947;BMP280;51469;52.150;4.682;2024-02-15T04:27:56;101625.81;;;18.60
64947;BMP280;51469;52.150;4.682;2024-02-15T04:30:23;101630.59;;;18.60
64947;BMP280;51469;52.150;4.682;2024-02-15T04:32:49;101631.38;;;18.60
64947;BMP280;51469;52.150;4.682;2024-02-15T04:35:15;101637.97;;;18.36
64947;BMP280;51469;52.150;4.682;2024-02-15T04:37:40;101643.19;;;18.68
64947;BMP280;51469;52.150;4.682;2024-02-15T04:40:06;101637.69;;;18.64
64947;BMP280;51469;52.150;4.682;2024-02-15T04:42:39;101643.88;;;18.79
64947;BMP280;51469;52.150;4.682;2024-02-15T04:45:08;101640.69;;;18.77
64947;BMP280;51469;52.150;4.682;2024-02-15T04:47:37;101643.06;;;18.78
64947;BMP280;51469;52.150;4.682;2024-02-15T04:50:03;101650.53;;;18.85
64947;BMP280;51469;52.150;4.682;2024-02-15T04:52:31;101645.94;;;18.71
64947;BMP280;51469;52.150;4.682;2024-02-15T04:54:56;101637.91;;;18.77
64947;BMP280;51469;52.150;4.682;2024-02-15T04:57:24;101638.22;;;18.86
64947;BMP280;51469;52.150;4.682;2024-02-15T04:59:51;101639.66;;;18.27
64947;BMP280;51469;52.150;4.682;2024-02-15T05:02:16;101620.16;;;18.67
64947;BMP280;51469;52.150;4.682;2024-02-15T05:04:45;101622.03;;;18.44
64947;BMP280;51469;52.150;4.682;2024-02-15T05:07:10;101602.84;;;18.56
64947;BMP280;51469;52.150;4.682;2024-02-15T05:09:35;101586.94;;;18.53
64947;BMP280;51469;52.150;4.682;2024-02-15T05:12:01;101575.56;;;18.48
64947;BMP280;51469;52.150;4.682;2024-02-15T05:14:28;101567.56;;;18.50
64947;BMP280;51469;52.150;4.682;2024-02-15T05:16:53;101549.78;;;18.40
64947;BMP280;51469;52.150;4.682;2024-02-15T05:19:18;101554.44;;;18.50
64947;BMP280;51469;52.150;4.682;2024-02-15T05:21:45;101563.94;;;18.56
64947;BMP280;51469;52.150;4.682;2024-02-15T05:24:17;101575.81;;;18.57
64947;BMP280;51469;52.150;4.682;2024-02-15T05:26:45;101588.19;;;18.49
64947;BMP280;51469;52.150;4.682;2024-02-15T05:29:17;101586.94;;;18.53
64947;BMP280;51469;52.150;4.682;2024-02-15T05:31:42;101589.25;;;18.62
64947;BMP280;51469;52.150;4.682;2024-02-15T05:34:11;101574.66;;;18.54
64947;BMP280;51469;52.150;4.682;2024-02-15T05:36:39;101584.53;;;18.59
64947;BMP280;51469;52.150;4.682;2024-02-15T05:39:04;101582.03;;;18.68
64947;BMP280;51469;52.150;4.682;2024-02-15T05:41:30;101584.63;;;18.52
64947;BMP280;51469;52.150;4.682;2024-02-15T05:43:57;101575.59;;;18.41
64947;BMP280;51469;52.150;4.682;2024-02-15T05:46:23;101566.16;;;18.35
64947;BMP280;51469;52.150;4.682;2024-02-15T05:48:49;101565.59;;;18.47
64947;BMP280;51469;52.150;4.682;2024-02-15T05:51:16;101561.78;;;18.34
64947;BMP280;51469;52.150;4.682;2024-02-15T05:53:43;101567.00;;;18.32
64947;BMP280;51469;52.150;4.682;2024-02-15T05:56:09;101565.19;;;18.48
64947;BMP280;51469;52.150;4.682;2024-02-15T05:58:38;101573.00;;;18.27
64947;BMP280;51469;52.150;4.682;2024-02-15T06:01:05;101575.00;;;18.60
64947;BMP280;51469;52.150;4.682;2024-02-15T06:03:33;101567.13;;;18.55
64947;BMP280;51469;52.150;4.682;2024-02-15T06:06:02;101577.72;;;18.63
64947;BMP280;51469;52.150;4.682;2024-02-15T06:08:32;101568.28;;;18.54
64947;BMP280;51469;52.150;4.682;2024-02-15T06:10:57;101557.28;;;18.77
64947;BMP280;51469;52.150;4.682;2024-02-15T06:13:23;101565.22;;;18.78
64947;BMP280;51469;52.150;4.682;2024-02-15T06:15:49;101576.53;;;18.64
64947;BMP280;51469;52.150;4.682;2024-02-15T06:18:18;101568.75;;;18.49
64947;BMP280;51469;52.150;4.682;2024-02-15T06:20:47;101553.31;;;18.78
64947;BMP280;51469;52.150;4.682;2024-02-15T06:23:14;101546.69;;;18.68
64947;BMP280;51469;52.150;4.682;2024-02-15T06:25:40;101544.13;;;18.51
64947;BMP280;51469;52.150;4.682;2024-02-15T06:28:05;101559.16;;;18.53
64947;BMP280;51469;52.150;4.682;2024-02-15T06:30:41;101559.06;;;18.64
64947;BMP280;51469;52.150;4.682;2024-02-15T06:33:25;101552.56;;;18.74
64947;BMP280;51469;52.150;4.682;2024-02-15T06:36:09;101557.97;;;18.88
64947;BMP280;51469;52.150;4.682;2024-02-15T06:38:53;101566.84;;;18.76
64947;BMP280;51469;52.150;4.682;2024-02-15T06:41:37;101562.09;;;18.43
64947;BMP280;51469;52.150;4.682;2024-02-15T06:44:03;101561.84;;;18.64
64947;BMP280;51469;52.150;4.682;2024-02-15T06:46:28;101546.50;;;18.52
64947;BMP280;51469;52.150;4.682;2024-02-15T06:48:54;101560.97;;;18.70
64947;BMP280;51469;52.150;4.682;2024-02-15T06:51:19;101570.47;;;18.73
64947;BMP280;51469;52.150;4.682;2024-02-15T06:53:45;101568.69;;;18.56
64947;BMP280;51469;52.150;4.682;2024-02-15T06:56:11;101578.81;;;18.73
64947;BMP280;51469;52.150;4.682;2024-02-15T06:58:36;101566.63;;;18.90
64947;BMP280;51469;52.150;4.682;2024-02-15T07:01:02;101558.59;;;18.69
64947;BMP280;51469;52.150;4.682;2024-02-15T07:03:30;101576.53;;;18.64
64947;BMP280;51469;52.150;4.682;2024-02-15T07:05:57;101577.97;;;18.76
64947;BMP280;51469;52.150;4.682;2024-02-15T07:08:22;101580.38;;;18.74
64947;BMP280;51469;52.150;4.682;2024-02-15T07:10:50;101576.22;;;18.89
64947;BMP280;51469;52.150;4.682;2024-02-15T07:13:16;101595.94;;;18.98
64947;BMP280;51469;52.150;4.682;2024-02-15T07:15:42;101595.19;;;18.94
64947;BMP280;51469;52.150;4.682;2024-02-15T07:18:09;101592.59;;;18.50
64947;BMP280;51469;52.150;4.682;2024-02-15T07:20:35;101592.34;;;18.71
64947;BMP280;51469;52.150;4.682;2024-02-15T07:23:02;101589.19;;;18.69
64947;BMP280;51469;52.150;4.682;2024-02-15T07:25:27;101579.63;;;18.70
64947;BMP280;51469;52.150;4.682;2024-02-15T07:27:52;101557.28;;;18.77
64947;BMP280;51469;52.150;4.682;2024-02-15T07:30:19;101571.28;;;18.70
64947;BMP280;51469;52.150;4.682;2024-02-15T07:32:45;101560.81;;;18.51
64947;BMP280;51469;52.150;4.682;2024-02-15T07:35:11;101581.78;;;18.55
64947;BMP280;51469;52.150;4.682;2024-02-15T07:37:36;101578.50;;;18.64
64947;BMP280;51469;52.150;4.682;2024-02-15T07:40:02;101576.03;;;18.73
64947;BMP280;51469;52.150;4.682;2024-02-15T07:42:32;101554.00;;;18.85
64947;BMP280;51469;52.150;4.682;2024-02-15T07:45:00;101572.59;;;18.58
64947;BMP280;51469;52.150;4.682;2024-02-15T07:47:25;101564.06;;;18.76
64947;BMP280;51469;52.150;4.682;2024-02-15T07:49:52;101576.38;;;18.75
64947;BMP280;51469;52.150;4.682;2024-02-15T07:52:17;101570.66;;;18.89
64947;BMP280;51469;52.150;4.682;2024-02-15T07:54:43;101562.34;;;18.85
64947;BMP280;51469;52.150;4.682;2024-02-15T07:57:08;101552.94;;;18.76
64947;BMP280;51469;52.150;4.682;2024-02-15T07:59:34;101564.31;;;18.85
64947;BMP280;51469;52.150;4.682;2024-02-15T08:02:01;101549.97;;;18.90
64947;BMP280;51469;52.150;4.682;2024-02-15T08:04:26;101559.72;;;18.75
64947;BMP280;51469;52.150;4.682;2024-02-15T08:06:51;101558.13;;;18.74
64947;BMP280;51469;52.150;4.682;2024-02-15T08:09:19;101553.69;;;18.50
64947;BMP280;51469;52.150;4.682;2024-02-15T08:11:49;101555.47;;;18.63
64947;BMP280;51469;52.150;4.682;2024-02-15T08:14:14;101544.44;;;18.60
64947;BMP280;51469;52.150;4.682;2024-02-15T08:16:40;101545.34;;;18.50
64947;BMP280;51469;52.150;4.682;2024-02-15T08:19:06;101545.59;;;18.59
64947;BMP280;51469;52.150;4.682;2024-02-15T08:21:33;101551.91;;;18.63
64947;BMP280;51469;52.150;4.682;2024-02-15T08:24:00;101549.28;;;18.82
64947;BMP280;51469;52.150;4.682;2024-02-15T08:26:36;101555.53;;;18.90
64947;BMP280;51469;52.150;4.682;2024-02-15T08:29:03;101550.72;;;18.94
64947;BMP280;51469;52.150;4.682;2024-02-15T08:31:28;101564.44;;;18.78
64947;BMP280;51469;52.150;4.682;2024-02-15T08:33:56;101556.41;;;18.83
64947;BMP280;51469;52.150;4.682;2024-02-15T08:36:21;101546.84;;;18.88
64947;BMP280;51469;52.150;4.682;2024-02-15T08:38:47;101555.91;;;18.62
64947;BMP280;51469;52.150;4.682;2024-02-15T08:41:12;101553.13;;;18.92
64947;BMP280;51469;52.150;4.682;2024-02-15T08:43:38;101549.13;;;18.93
64947;BMP280;51469;52.150;4.682;2024-02-15T08:46:05;101557.97;;;18.88
64947;BMP280;51469;52.150;4.682;2024-02-15T08:48:31;101552.91;;;18.46
64947;BMP280;51469;52.150;4.682;2024-02-15T08:50:57;101551.56;;;18.61
64947;BMP280;51469;52.150;4.682;2024-02-15T08:53:23;101542.41;;;18.90
64947;BMP280;51469;52.150;4.682;2024-02-15T08:55:49;101539.50;;;19.01
64947;BMP280;51469;52.150;4.682;2024-02-15T08:58:15;101540.34;;;18.68
64947;BMP280;51469;52.150;4.682;2024-02-15T09:00:40;101538.78;;;18.93
64947;BMP280;51469;52.150;4.682;2024-02-15T09:03:11;101532.34;;;19.00
64947;BMP280;51469;52.150;4.682;2024-02-15T09:05:37;101532.25;;;19.07
64947;BMP280;51469;52.150;4.682;2024-02-15T09:08:03;101536.75;;;18.71
64947;BMP280;51469;52.150;4.682;2024-02-15T09:10:31;101542.75;;;18.96
64947;BMP280;51469;52.150;4.682;2024-02-15T09:12:57;101538.13;;;18.86
64947;BMP280;51469;52.150;4.682;2024-02-15T09:15:22;101533.22;;;18.93
64947;BMP280;51469;52.150;4.682;2024-02-15T09:17:48;101538.38;;;18.95
64947;BMP280;51469;52.150;4.682;2024-02-15T09:20:17;101540.31;;;18.98
64947;BMP280;51469;52.150;4.682;2024-02-15T09:22:52;101541.84;;;19.02
64947;BMP280;51469;52.150;4.682;2024-02-15T09:25:20;101537.78;;;18.80
64947;BMP280;51469;52.150;4.682;2024-02-15T09:27:46;101541.19;;;18.91
64947;BMP280;51469;52.150;4.682;2024-02-15T09:30:12;101538.19;;;19.09
64947;BMP280;51469;52.150;4.682;2024-02-15T09:32:41;101537.06;;;19.03
64947;BMP280;51469;52.150;4.682;2024-02-15T09:35:08;101543.47;;;19.00
64947;BMP280;51469;52.150;4.682;2024-02-15T09:37:37;101549.13;;;18.93
64947;BMP280;51469;52.150;4.682;2024-02-15T09:42:35;101528.56;;;19.40
64947;BMP280;51469;52.150;4.682;2024-02-15T09:45:02;101544.56;;;19.32
64947;BMP280;51469;52.150;4.682;2024-02-15T09:47:34;101540.19;;;19.58
64947;BMP280;51469;52.150;4.682;2024-02-15T09:50:00;101541.13;;;19.48
64947;BMP280;51469;52.150;4.682;2024-02-15T09:52:25;101541.03;;;19.05
64947;BMP280;51469;52.150;4.682;2024-02-15T09:54:51;101543.94;;;19.21
64947;BMP280;51469;52.150;4.682;2024-02-15T09:57:19;101543.81;;;19.32
64947;BMP280;51469;52.150;4.682;2024-02-15T09:59:45;101535.44;;;19.32
64947;BMP280;51469;52.150;4.682;2024-02-15T10:02:10;101525.38;;;19.38
64947;BMP280;51469;52.150;4.682;2024-02-15T10:04:41;101530.81;;;19.48
64947;BMP280;51469;52.150;4.682;2024-02-15T10:07:08;101520.44;;;19.49
64947;BMP280;51469;52.150;4.682;2024-02-15T10:09:34;101521.66;;;19.48
64947;BMP280;51469;52.150;4.682;2024-02-15T10:12:02;101533.69;;;19.64
64947;BMP280;51469;52.150;4.682;2024-02-15T10:14:29;101538.75;;;19.50
64947;BMP280;51469;52.150;4.682;2024-02-15T10:16:55;101541.25;;;19.41
64947;BMP280;51469;52.150;4.682;2024-02-15T10:19:24;101551.03;;;19.72
64947;BMP280;51469;52.150;4.682;2024-02-15T10:21:54;101531.22;;;19.70
64947;BMP280;51469;52.150;4.682;2024-02-15T10:24:23;101545.63;;;19.65
64947;BMP280;51469;52.150;4.682;2024-02-15T10:27:00;101547.59;;;19.87
64947;BMP280;51469;52.150;4.682;2024-02-15T10:29:29;101551.13;;;19.91
64947;BMP280;51469;52.150;4.682;2024-02-15T10:31:58;101550.25;;;19.94
64947;BMP280;51469;52.150;4.682;2024-02-15T10:34:24;101546.81;;;19.87
64947;BMP280;51469;52.150;4.682;2024-02-15T10:36:52;101550.53;;;20.00
64947;BMP280;51469;52.150;4.682;2024-02-15T10:39:18;101540.63;;;19.99
64947;BMP280;51469;52.150;4.682;2024-02-15T10:41:51;101538.94;;;20.24
64947;BMP280;51469;52.150;4.682;2024-02-15T10:44:23;101533.84;;;20.39
64947;BMP280;51469;52.150;4.682;2024-02-15T10:46:52;101531.22;;;20.32
64947;BMP280;51469;52.150;4.682;2024-02-15T10:49:19;101523.72;;;20.29
64947;BMP280;51469;52.150;4.682;2024-02-15T10:51:50;101527.19;;;20.52
64947;BMP280;51469;52.150;4.682;2024-02-15T10:54:15;101522.13;;;20.28
64947;BMP280;51469;52.150;4.682;2024-02-15T10:56:45;101522.28;;;20.21
64947;BMP280;51469;52.150;4.682;2024-02-15T10:59:19;101524.97;;;20.05
64947;BMP280;51469;52.150;4.682;2024-02-15T11:01:49;101533.44;;;20.21
64947;BMP280;51469;52.150;4.682;2024-02-15T11:04:20;101529.44;;;20.22
64947;BMP280;51469;52.150;4.682;2024-02-15T11:06:52;101526.31;;;20.55
64947;BMP280;51469;52.150;4.682;2024-02-15T11:09:20;101528.44;;;20.67
64947;BMP280;51469;52.150;4.682;2024-02-15T11:11:47;101513.72;;;20.51
64947;BMP280;51469;52.150;4.682;2024-02-15T11:14:30;101504.22;;;20.64
64947;BMP280;51469;52.150;4.682;2024-02-15T11:16:57;101508.69;;;20.78
64947;BMP280;51469;52.150;4.682;2024-02-15T11:21:58;101519.94;;;20.19
64947;BMP280;51469;52.150;4.682;2024-02-15T11:24:28;101506.88;;;20.52
64947;BMP280;51469;52.150;4.682;2024-02-15T11:26:57;101501.50;;;20.61
64947;BMP280;51469;52.150;4.682;2024-02-15T11:35:08;101492.72;;;20.43
64947;BMP280;51469;52.150;4.682;2024-02-15T11:43:09;101488.66;;;20.99
64947;BMP280;51469;52.150;4.682;2024-02-15T11:45:36;101478.72;;;21.14
64947;BMP280;51469;52.150;4.682;2024-02-15T11:48:09;101479.78;;;21.20
64947;BMP280;51469;52.150;4.682;2024-02-15T11:50:36;101474.53;;;21.22
64947;BMP280;51469;52.150;4.682;2024-02-15T11:53:04;101470.28;;;21.01
64947;BMP280;51469;52.150;4.682;2024-02-15T11:55:36;101474.63;;;21.18
64947;BMP280;51469;52.150;4.682;2024-02-15T11:58:03;101468.88;;;21.09
64947;BMP280;51469;52.150;4.682;2024-02-15T12:00:32;101463.00;;;21.36
64947;BMP280;51469;52.150;4.682;2024-02-15T12:03:17;101462.44;;;21.57
64947;BMP280;51469;52.150;4.682;2024-02-15T12:06:02;101463.56;;;21.59
64947;BMP280;51469;52.150;4.682;2024-02-15T12:08:47;101457.56;;;21.61
64947;BMP280;51469;52.150;4.682;2024-02-15T12:11:31;101462.84;;;21.27
64947;BMP280;51469;52.150;4.682;2024-02-15T12:14:16;101465.81;;;21.20
64947;BMP280;51469;52.150;4.682;2024-02-15T12:17:04;101449.59;;;21.31
64947;BMP280;51469;52.150;4.682;2024-02-15T12:19:49;101446.09;;;21.43
64947;BMP280;51469;52.150;4.682;2024-02-15T12:22:29;101449.91;;;21.49
64947;BMP280;51469;52.150;4.682;2024-02-15T12:24:57;101442.94;;;21.41
64947;BMP280;51469;52.150;4.682;2024-02-15T12:27:24;101440.09;;;21.57
64947;BMP280;51469;52.150;4.682;2024-02-15T12:30:01;101437.16;;;21.48
64947;BMP280;51469;52.150;4.682;2024-02-15T12:32:27;101439.56;;;21.74
64947;BMP280;51469;52.150;4.682;2024-02-15T12:35:12;101423.44;;;21.82
64947;BMP280;51469;52.150;4.682;2024-02-15T12:40:34;101419.34;;;21.58
64947;BMP280;51469;52.150;4.682;2024-02-15T12:42:59;101410.72;;;21.81
64947;BMP280;51469;52.150;4.682;2024-02-15T12:45:26;101421.56;;;21.63
64947;BMP280;51469;52.150;4.682;2024-02-15T12:47:55;101405.41;;;21.70
64947;BMP280;51469;52.150;4.682;2024-02-15T12:50:22;101396.16;;;21.86
64947;BMP280;51469;52.150;4.682;2024-02-15T12:52:51;101393.09;;;21.68
64947;BMP280;51469;52.150;4.682;2024-02-15T12:55:25;101403.19;;;21.78
64947;BMP280;51469;52.150;4.682;2024-02-15T12:57:51;101391.84;;;21.97
64947;BMP280;51469;52.150;4.682;2024-02-15T13:00:22;101389.97;;;22.19
64947;BMP280;51469;52.150;4.682;2024-02-15T13:02:49;101389.94;;;22.07
64947;BMP280;51469;52.150;4.682;2024-02-15T13:05:16;101390.38;;;21.93
64947;BMP280;51469;52.150;4.682;2024-02-15T13:07:44;101389.94;;;22.07
64947;BMP280;51469;52.150;4.682;2024-02-15T13:10:09;101388.63;;;22.11
64947;BMP280;51469;52.150;4.682;2024-02-15T13:12:35;101382.56;;;22.13
64947;BMP280;51469;52.150;4.682;2024-02-15T13:15:04;101371.38;;;22.13
64947;BMP280;51469;52.150;4.682;2024-02-15T13:17:31;101371.94;;;21.95
64947;BMP280;51469;52.150;4.682;2024-02-15T13:19:59;101363.25;;;22.18
64947;BMP280;51469;52.150;4.682;2024-02-15T13:22:32;101373.19;;;22.32
64947;BMP280;51469;52.150;4.682;2024-02-15T13:24:59;101361.31;;;22.40
64947;BMP280;51469;52.150;4.682;2024-02-15T13:27:24;101357.25;;;22.54
64947;BMP280;51469;52.150;4.682;2024-02-15T13:29:50;101343.91;;;21.99
64947;BMP280;51469;52.150;4.682;2024-02-15T13:32:16;101343.44;;;22.13
64947;BMP280;51469;52.150;4.682;2024-02-15T13:34:47;101329.47;;;22.25
64947;BMP280;51469;52.150;4.682;2024-02-15T13:37:16;101345.66;;;22.18
64947;BMP280;51469;52.150;4.682;2024-02-15T13:39:42;101348.91;;;22.29
64947;BMP280;51469;52.150;4.682;2024-02-15T13:42:11;101337.41;;;22.27
64947;BMP280;51469;52.150;4.682;2024-02-15T13:44:36;101333.69;;;22.42
64947;BMP280;51469;52.150;4.682;2024-02-15T13:47:02;101342.88;;;22.18
64947;BMP280;51469;52.150;4.682;2024-02-15T13:49:28;101338.75;;;22.35
64947;BMP280;51469;52.150;4.682;2024-02-15T13:51:56;101332.78;;;22.45
64947;BMP280;51469;52.150;4.682;2024-02-15T13:54:27;101334.25;;;22.37
64947;BMP280;51469;52.150;4.682;2024-02-15T13:56:53;101335.63;;;22.08
64947;BMP280;51469;52.150;4.682;2024-02-15T13:59:18;101323.66;;;22.20
64947;BMP280;51469;52.150;4.682;2024-02-15T14:01:44;101315.16;;;22.23
64947;BMP280;51469;52.150;4.682;2024-02-15T14:04:11;101313.69;;;22.19
64947;BMP280;51469;52.150;4.682;2024-02-15T14:06:36;101316.50;;;22.06
64947;BMP280;51469;52.150;4.682;2024-02-15T14:09:05;101313.47;;;22.26
64947;BMP280;51469;52.150;4.682;2024-02-15T14:11:31;101321.41;;;22.27
64947;BMP280;51469;52.150;4.682;2024-02-15T14:13:56;101306.13;;;22.07
64947;BMP280;51469;52.150;4.682;2024-02-15T14:16:24;101307.91;;;22.01
64947;BMP280;51469;52.150;4.682;2024-02-15T14:18:50;101309.69;;;22.20
64947;BMP280;51469;52.150;4.682;2024-02-15T14:21:16;101308.31;;;22.24